sensor_id;sensor_type;location;lat;lon;timestamp;P1;durP1;ratioP1;P2;durP2;ratioP2
44564;SDS011;30275;51.822;-0.326;2023-02-04T00:01:20;6.63;;;3.90;;
44564;SDS011;30275;51.822;-0.326;2023-02-04T00:03:46;7.20;;;4.15;;
44564;SDS011;30275;51.822;-0.326;2023-02-04T00:06:11;6.80;;;4.03;;
44564;SDS011;30275;51.822;-0.326;2023-02-04T00:08:37;6.93;;;3.80;;
44564;SDS011;30275;51.822;-0.326;2023-02-04T00:11:03;7.35;;;4.18;;
44564;SDS011;30275;51.822;-0.326;2023-02-04T00:13:29;5.97;;;3.90;;
44564;SDS011;30275;51.822;-0.326;2023-02-04T00:15:54;8.27;;;3.88;;
44564;SDS011;30275;51.822;-0.326;2023-02-04T00:18:20;6.35;;;4.03;;
44564;SDS011;30275;51.822;-0.326;2023-02-04T00:20:46;8.27;;;3.90;;
44564;SDS011;30275;51.822;-0.326;2023-02-04T00:23:11;6.43;;;3.60;;
44564;SDS011;30275;51.822;-0.326;2023-02-04T00:25:37;5.70;;;4.00;;
44564;SDS011;30275;51.822;-0.326;2023-02-04T00:28:03;6.05;;;3.40;;
44564;SDS011;30275;51.822;-0.326;2023-02-04T00:30:30;9.38;;;4.40;;
44564;SDS011;30275;51.822;-0.326;2023-02-04T00:32:56;8.52;;;4.30;;
44564;SDS011;30275;51.822;-0.326;2023-02-04T00:35:22;5.40;;;3.67;;
44564;SDS011;30275;51.822;-0.326;2023-02-04T00:37:48;5.13;;;3.40;;
44564;SDS011;30275;51.822;-0.326;2023-02-04T00:40:14;6.75;;;4.05;;
44564;SDS011;30275;51.822;-0.326;2023-02-04T00:42:40;7.75;;;4.07;;
44564;SDS011;30275;51.822;-0.326;2023-02-04T00:45:06;7.75;;;4.13;;
44564;SDS011;30275;51.822;-0.326;2023-02-04T00:47:32;7.55;;;3.70;;
44564;SDS011;30275;51.822;-0.326;2023-02-04T00:49:58;5.70;;;3.70;;
44564;SDS011;30275;51.822;-0.326;2023-02-04T00:52:23;6.20;;;3.85;;
44564;SDS011;30275;51.822;-0.326;2023-02-04T00:54:49;6.70;;;3.88;;
44564;SDS011;30275;51.822;-0.326;2023-02-04T00:57:15;8.18;;;3.92;;
44564;SDS011;30275;51.822;-0.326;2023-02-04T00:59:40;5.95;;;3.80;;
44564;SDS011;30275;51.822;-0.326;2023-02-04T01:02:06;8.63;;;3.60;;
44564;SDS011;30275;51.822;-0.326;2023-02-04T01:04:32;6.05;;;3.78;;
44564;SDS011;30275;51.822;-0.326;2023-02-04T01:06:57;6.55;;;4.05;;
44564;SDS011;30275;51.822;-0.326;2023-02-04T01:09:23;6.63;;;3.90;;
44564;SDS011;30275;51.822;-0.326;2023-02-04T01:11:48;7.07;;;3.72;;
44564;SDS011;30275;51.822;-0.326;2023-02-04T01:14:14;5.95;;;3.63;;
44564;SDS011;30275;51.822;-0.326;2023-02-04T01:16:40;4.47;;;2.88;;
44564;SDS011;30275;51.822;-0.326;2023-02-04T01:19:05;8.77;;;3.53;;
44564;SDS011;30275;51.822;-0.326;2023-02-04T01:21:31;6.63;;;3.22;;
44564;SDS011;30275;51.822;-0.326;2023-02-04T01:23:57;5.70;;;3.35;;
44564;SDS011;30275;51.822;-0.326;2023-02-04T01:26:22;6.88;;;3.83;;
44564;SDS011;30275;51.822;-0.326;2023-02-04T01:28:48;8.73;;;3.67;;
44564;SDS011;30275;51.822;-0.326;2023-02-04T01:31:14;7.68;;;3.42;;
44564;SDS011;30275;51.822;-0.326;2023-02-04T01:33:40;7.10;;;3.95;;
44564;SDS011;30275;51.822;-0.326;2023-02-04T01:36:05;7.45;;;4.38;;
44564;SDS011;30275;51.822;-0.326;2023-02-04T01:38:31;8.73;;;3.95;;
44564;SDS011;30275;51.822;-0.326;2023-02-04T01:40:57;5.20;;;3.50;;
44564;SDS011;30275;51.822;-0.326;2023-02-04T01:43:23;6.00;;;3.55;;
44564;SDS011;30275;51.822;-0.326;2023-02-04T01:45:49;5.00;;;3.22;;
44564;SDS011;30275;51.822;-0.326;2023-02-04T01:48:15;5.45;;;3.40;;
44564;SDS011;30275;51.822;-0.326;2023-02-04T01:50:56;9.52;;;4.05;;
44564;SDS011;30275;51.822;-0.326;2023-02-04T01:53:28;6.22;;;3.95;;
44564;SDS011;30275;51.822;-0.326;2023-02-04T01:55:55;8.68;;;4.25;;
44564;SDS011;30275;51.822;-0.326;2023-02-04T01:58:21;5.80;;;3.35;;
44564;SDS011;30275;51.822;-0.326;2023-02-04T02:00:46;6.38;;;3.78;;
44564;SDS011;30275;51.822;-0.326;2023-02-04T02:03:12;7.03;;;3.80;;
44564;SDS011;30275;51.822;-0.326;2023-02-04T02:05:45;6.15;;;3.78;;
44564;SDS011;30275;51.822;-0.326;2023-02-04T02:08:13;7.07;;;3.47;;
44564;SDS011;30275;51.822;-0.326;2023-02-04T02:10:40;6.22;;;3.13;;
44564;SDS011;30275;51.822;-0.326;2023-02-04T02:13:09;8.13;;;3.75;;
44564;SDS011;30275;51.822;-0.326;2023-02-04T02:15:38;4.80;;;2.67;;
44564;SDS011;30275;51.822;-0.326;2023-02-04T02:18:04;4.93;;;2.67;;
44564;SDS011;30275;51.822;-0.326;2023-02-04T02:20:30;5.50;;;2.85;;
44564;SDS011;30275;51.822;-0.326;2023-02-04T02:25:35;6.82;;;2.80;;
44564;SDS011;30275;51.822;-0.326;2023-02-04T02:28:01;5.45;;;2.47;;
44564;SDS011;30275;51.822;-0.326;2023-02-04T02:30:30;4.70;;;2.33;;
44564;SDS011;30275;51.822;-0.326;2023-02-04T02:32:56;3.85;;;2.40;;
44564;SDS011;30275;51.822;-0.326;2023-02-04T02:35:22;6.28;;;2.65;;
44564;SDS011;30275;51.822;-0.326;2023-02-04T02:37:47;5.03;;;2.03;;
44564;SDS011;30275;51.822;-0.326;2023-02-04T02:40:13;4.57;;;2.03;;
44564;SDS011;30275;51.822;-0.326;2023-02-04T02:42:39;3.60;;;2.13;;
44564;SDS011;30275;51.822;-0.326;2023-02-04T02:45:13;4.97;;;2.10;;
44564;SDS011;30275;51.822;-0.326;2023-02-04T02:47:48;4.30;;;1.95;;
44564;SDS011;30275;51.822;-0.326;2023-02-04T02:50:15;2.28;;;1.80;;
44564;SDS011;30275;51.822;-0.326;2023-02-04T02:52:41;3.28;;;2.17;;
44564;SDS011;30275;51.822;-0.326;2023-02-04T02:55:11;4.38;;;2.10;;
44564;SDS011;30275;51.822;-0.326;2023-02-04T02:57:41;3.15;;;1.63;;
44564;SDS011;30275;51.822;-0.326;2023-02-04T03:00:16;4.85;;;1.92;;
44564;SDS011;30275;51.822;-0.326;2023-02-04T03:02:59;4.03;;;1.80;;
44564;SDS011;30275;51.822;-0.326;2023-02-04T03:05:26;2.72;;;1.65;;
44564;SDS011;30275;51.822;-0.326;2023-02-04T03:07:54;3.67;;;1.80;;
44564;SDS011;30275;51.822;-0.326;2023-02-04T03:10:20;3.22;;;1.42;;
44564;SDS011;30275;51.822;-0.326;2023-02-04T03:12:45;3.08;;;1.40;;
44564;SDS011;30275;51.822;-0.326;2023-02-04T03:15:12;2.10;;;1.63;;
44564;SDS011;30275;51.822;-0.326;2023-02-04T03:17:38;2.65;;;1.60;;
44564;SDS011;30275;51.822;-0.326;2023-02-04T03:20:05;2.70;;;1.60;;
44564;SDS011;30275;51.822;-0.326;2023-02-04T03:22:31;4.30;;;1.90;;
44564;SDS011;30275;51.822;-0.326;2023-02-04T03:24:58;2.83;;;1.73;;
44564;SDS011;30275;51.822;-0.326;2023-02-04T03:27:23;2.95;;;1.80;;
44564;SDS011;30275;51.822;-0.326;2023-02-04T03:29:49;4.30;;;1.88;;
44564;SDS011;30275;51.822;-0.326;2023-02-04T03:32:15;4.00;;;1.60;;
44564;SDS011;30275;51.822;-0.326;2023-02-04T03:34:41;3.30;;;1.52;;
44564;SDS011;30275;51.822;-0.326;2023-02-04T03:37:06;2.22;;;1.50;;
44564;SDS011;30275;51.822;-0.326;2023-02-04T03:39:32;2.05;;;1.60;;
44564;SDS011;30275;51.822;-0.326;2023-02-04T03:41:58;3.25;;;1.45;;
44564;SDS011;30275;51.822;-0.326;2023-02-04T03:44:23;2.30;;;1.30;;
44564;SDS011;30275;51.822;-0.326;2023-02-04T03:46:51;2.47;;;1.60;;
44564;SDS011;30275;51.822;-0.326;2023-02-04T03:49:19;3.75;;;1.92;;
44564;SDS011;30275;51.822;-0.326;2023-02-04T03:51:45;3.13;;;1.60;;
44564;SDS011;30275;51.822;-0.326;2023-02-04T03:54:11;3.15;;;1.52;;
44564;SDS011;30275;51.822;-0.326;2023-02-04T03:56:37;3.42;;;1.80;;
44564;SDS011;30275;51.822;-0.326;2023-02-04T03:59:03;2.67;;;1.88;;
44564;SDS011;30275;51.822;-0.326;2023-02-04T04:01:28;4.55;;;1.98;;
44564;SDS011;30275;51.822;-0.326;2023-02-04T04:03:54;2.67;;;1.67;;
44564;SDS011;30275;51.822;-0.326;2023-02-04T04:06:19;3.22;;;1.65;;
44564;SDS011;30275;51.822;-0.326;2023-02-04T04:08:45;3.75;;;1.80;;
44564;SDS011;30275;51.822;-0.326;2023-02-04T04:11:10;3.72;;;1.95;;
44564;SDS011;30275;51.822;-0.326;2023-02-04T04:13:36;3.67;;;2.22;;
44564;SDS011;30275;51.822;-0.326;2023-02-04T04:16:02;4.00;;;2.20;;
44564;SDS011;30275;51.822;-0.326;2023-02-04T04:18:29;4.18;;;2.58;;
44564;SDS011;30275;51.822;-0.326;2023-02-04T04:20:56;3.33;;;2.70;;
44564;SDS011;30275;51.822;-0.326;2023-02-04T04:23:22;7.35;;;2.92;;
44564;SDS011;30275;51.822;-0.326;2023-02-04T04:25:48;6.10;;;3.28;;
44564;SDS011;30275;51.822;-0.326;2023-02-04T04:28:14;6.93;;;3.33;;
44564;SDS011;30275;51.822;-0.326;2023-02-04T04:30:40;6.68;;;3.72;;
44564;SDS011;30275;51.822;-0.326;2023-02-04T04:33:05;6.78;;;4.53;;
44564;SDS011;30275;51.822;-0.326;2023-02-04T04:35:31;9.20;;;4.63;;
44564;SDS011;30275;51.822;-0.326;2023-02-04T04:37:56;9.20;;;5.05;;
44564;SDS011;30275;51.822;-0.326;2023-02-04T04:40:22;9.95;;;5.32;;
44564;SDS011;30275;51.822;-0.326;2023-02-04T04:42:47;9.40;;;5.40;;
44564;SDS011;30275;51.822;-0.326;2023-02-04T04:45:13;9.75;;;5.40;;
44564;SDS011;30275;51.822;-0.326;2023-02-04T04:47:39;9.48;;;5.97;;
44564;SDS011;30275;51.822;-0.326;2023-02-04T04:50:04;14.93;;;6.05;;
44564;SDS011;30275;51.822;-0.326;2023-02-04T04:52:30;11.90;;;6.15;;
44564;SDS011;30275;51.822;-0.326;2023-02-04T04:54:56;10.52;;;6.22;;
44564;SDS011;30275;51.822;-0.326;2023-02-04T04:57:21;12.27;;;6.72;;
44564;SDS011;30275;51.822;-0.326;2023-02-04T04:59:47;10.35;;;6.53;;
44564;SDS011;30275;51.822;-0.326;2023-02-04T05:02:12;13.40;;;7.05;;
44564;SDS011;30275;51.822;-0.326;2023-02-04T05:04:38;10.45;;;6.57;;
44564;SDS011;30275;51.822;-0.326;2023-02-04T05:07:03;12.15;;;6.90;;
44564;SDS011;30275;51.822;-0.326;2023-02-04T05:09:29;9.57;;;5.97;;
44564;SDS011;30275;51.822;-0.326;2023-02-04T05:11:55;12.88;;;6.95;;
44564;SDS011;30275;51.822;-0.326;2023-02-04T05:14:20;13.60;;;6.63;;
44564;SDS011;30275;51.822;-0.326;2023-02-04T05:16:46;10.07;;;6.28;;
44564;SDS011;30275;51.822;-0.326;2023-02-04T05:19:12;10.75;;;7.40;;
44564;SDS011;30275;51.822;-0.326;2023-02-04T05:21:37;10.70;;;6.28;;
44564;SDS011;30275;51.822;-0.326;2023-02-04T05:24:03;12.32;;;6.90;;
44564;SDS011;30275;51.822;-0.326;2023-02-04T05:26:30;10.90;;;6.63;;
44564;SDS011;30275;51.822;-0.326;2023-02-04T05:28:57;13.80;;;7.35;;
44564;SDS011;30275;51.822;-0.326;2023-02-04T05:31:24;10.48;;;6.90;;
44564;SDS011;30275;51.822;-0.326;2023-02-04T05:33:50;12.50;;;6.57;;
44564;SDS011;30275;51.822;-0.326;2023-02-04T05:36:16;11.32;;;6.32;;
44564;SDS011;30275;51.822;-0.326;2023-02-04T05:38:42;13.90;;;7.13;;
44564;SDS011;30275;51.822;-0.326;2023-02-04T05:41:08;12.18;;;6.75;;
44564;SDS011;30275;51.822;-0.326;2023-02-04T05:43:33;10.80;;;7.57;;
44564;SDS011;30275;51.822;-0.326;2023-02-04T05:45:59;11.65;;;6.07;;
44564;SDS011;30275;51.822;-0.326;2023-02-04T05:48:25;12.45;;;7.38;;
44564;SDS011;30275;51.822;-0.326;2023-02-04T05:50:51;11.02;;;6.95;;
44564;SDS011;30275;51.822;-0.326;2023-02-04T05:53:16;11.65;;;7.00;;
44564;SDS011;30275;51.822;-0.326;2023-02-04T05:55:42;12.65;;;7.05;;
44564;SDS011;30275;51.822;-0.326;2023-02-04T05:58:07;9.43;;;7.10;;
44564;SDS011;30275;51.822;-0.326;2023-02-04T06:00:33;11.23;;;7.30;;
44564;SDS011;30275;51.822;-0.326;2023-02-04T06:02:59;12.73;;;7.15;;
44564;SDS011;30275;51.822;-0.326;2023-02-04T06:05:24;10.77;;;7.47;;
44564;SDS011;30275;51.822;-0.326;2023-02-04T06:07:50;13.43;;;7.45;;
44564;SDS011;30275;51.822;-0.326;2023-02-04T06:10:16;10.35;;;7.20;;
44564;SDS011;30275;51.822;-0.326;2023-02-04T06:12:42;10.90;;;7.10;;
44564;SDS011;30275;51.822;-0.326;2023-02-04T06:15:07;11.00;;;7.22;;
44564;SDS011;30275;51.822;-0.326;2023-02-04T06:17:33;13.27;;;7.00;;
44564;SDS011;30275;51.822;-0.326;2023-02-04T06:19:59;11.77;;;7.28;;
44564;SDS011;30275;51.822;-0.326;2023-02-04T06:22:25;11.95;;;7.85;;
44564;SDS011;30275;51.822;-0.326;2023-02-04T06:24:51;14.50;;;7.22;;
44564;SDS011;30275;51.822;-0.326;2023-02-04T06:27:16;10.45;;;7.28;;
44564;SDS011;30275;51.822;-0.326;2023-02-04T06:29:53;10.73;;;6.97;;
44564;SDS011;30275;51.822;-0.326;2023-02-04T06:32:19;10.13;;;6.25;;
44564;SDS011;30275;51.822;-0.326;2023-02-04T06:34:46;9.75;;;6.00;;
44564;SDS011;30275;51.822;-0.326;2023-02-04T06:37:11;11.65;;;6.75;;
44564;SDS011;30275;51.822;-0.326;2023-02-04T06:39:37;11.90;;;7.15;;
44564;SDS011;30275;51.822;-0.326;2023-02-04T06:42:03;9.40;;;6.57;;
44564;SDS011;30275;51.822;-0.326;2023-02-04T06:44:29;8.57;;;5.88;;
44564;SDS011;30275;51.822;-0.326;2023-02-04T06:46:54;11.00;;;6.95;;
44564;SDS011;30275;51.822;-0.326;2023-02-04T06:49:20;10.15;;;6.05;;
44564;SDS011;30275;51.822;-0.326;2023-02-04T06:51:46;11.02;;;6.20;;
44564;SDS011;30275;51.822;-0.326;2023-02-04T06:54:12;11.10;;;6.70;;
44564;SDS011;30275;51.822;-0.326;2023-02-04T06:56:38;10.85;;;6.07;;
44564;SDS011;30275;51.822;-0.326;2023-02-04T06:59:04;9.73;;;5.90;;
44564;SDS011;30275;51.822;-0.326;2023-02-04T07:01:30;8.85;;;5.88;;
44564;SDS011;30275;51.822;-0.326;2023-02-04T07:03:55;9.25;;;5.57;;
44564;SDS011;30275;51.822;-0.326;2023-02-04T07:06:21;10.32;;;5.85;;
44564;SDS011;30275;51.822;-0.326;2023-02-04T07:08:47;7.18;;;5.22;;
44564;SDS011;30275;51.822;-0.326;2023-02-04T07:11:13;9.52;;;5.50;;
44564;SDS011;30275;51.822;-0.326;2023-02-04T07:13:39;9.77;;;5.82;;
44564;SDS011;30275;51.822;-0.326;2023-02-04T07:16:05;9.43;;;5.80;;
44564;SDS011;30275;51.822;-0.326;2023-02-04T07:18:31;8.93;;;5.57;;
44564;SDS011;30275;51.822;-0.326;2023-02-04T07:20:57;7.80;;;4.97;;
44564;SDS011;30275;51.822;-0.326;2023-02-04T07:23:22;7.50;;;5.40;;
44564;SDS011;30275;51.822;-0.326;2023-02-04T07:25:49;9.80;;;5.10;;
44564;SDS011;30275;51.822;-0.326;2023-02-04T07:28:17;6.75;;;4.63;;
44564;SDS011;30275;51.822;-0.326;2023-02-04T07:30:43;8.80;;;5.40;;
44564;SDS011;30275;51.822;-0.326;2023-02-04T07:33:09;9.00;;;5.40;;
44564;SDS011;30275;51.822;-0.326;2023-02-04T07:35:35;8.07;;;4.85;;
44564;SDS011;30275;51.822;-0.326;2023-02-04T07:38:02;8.50;;;4.90;;
44564;SDS011;30275;51.822;-0.326;2023-02-04T07:40:28;7.68;;;4.88;;
44564;SDS011;30275;51.822;-0.326;2023-02-04T07:42:53;8.75;;;5.03;;
44564;SDS011;30275;51.822;-0.326;2023-02-04T07:45:19;7.53;;;5.07;;
44564;SDS011;30275;51.822;-0.326;2023-02-04T07:47:45;7.22;;;4.97;;
44564;SDS011;30275;51.822;-0.326;2023-02-04T07:50:10;8.32;;;4.60;;
44564;SDS011;30275;51.822;-0.326;2023-02-04T07:52:37;7.68;;;4.70;;
44564;SDS011;30275;51.822;-0.326;2023-02-04T07:55:03;7.95;;;4.28;;
44564;SDS011;30275;51.822;-0.326;2023-02-04T07:57:29;6.03;;;4.20;;
44564;SDS011;30275;51.822;-0.326;2023-02-04T07:59:55;6.78;;;4.70;;
44564;SDS011;30275;51.822;-0.326;2023-02-04T08:02:20;5.15;;;3.58;;
44564;SDS011;30275;51.822;-0.326;2023-02-04T08:04:46;6.70;;;3.97;;
44564;SDS011;30275;51.822;-0.326;2023-02-04T08:07:11;6.95;;;5.50;;
44564;SDS011;30275;51.822;-0.326;2023-02-04T08:09:37;7.65;;;4.22;;
44564;SDS011;30275;51.822;-0.326;2023-02-04T08:12:03;8.18;;;4.50;;
44564;SDS011;30275;51.822;-0.326;2023-02-04T08:14:28;6.85;;;4.22;;
44564;SDS011;30275;51.822;-0.326;2023-02-04T08:16:54;6.28;;;4.50;;
44564;SDS011;30275;51.822;-0.326;2023-02-04T08:19:20;6.18;;;4.57;;
44564;SDS011;30275;51.822;-0.326;2023-02-04T08:21:46;6.55;;;4.25;;
44564;SDS011;30275;51.822;-0.326;2023-02-04T08:24:12;7.72;;;4.40;;
44564;SDS011;30275;51.822;-0.326;2023-02-04T08:26:39;7.18;;;4.10;;
44564;SDS011;30275;51.822;-0.326;2023-02-04T08:29:06;5.70;;;3.85;;
44564;SDS011;30275;51.822;-0.326;2023-02-04T08:31:32;5.88;;;3.70;;
44564;SDS011;30275;51.822;-0.326;2023-02-04T08:33:57;7.80;;;3.90;;
44564;SDS011;30275;51.822;-0.326;2023-02-04T08:36:23;7.38;;;4.53;;
44564;SDS011;30275;51.822;-0.326;2023-02-04T08:38:49;6.03;;;4.10;;
44564;SDS011;30275;51.822;-0.326;2023-02-04T08:41:14;6.22;;;4.03;;
44564;SDS011;30275;51.822;-0.326;2023-02-04T08:43:40;6.78;;;4.28;;
44564;SDS011;30275;51.822;-0.326;2023-02-04T08:46:06;7.45;;;3.78;;
44564;SDS011;30275;51.822;-0.326;2023-02-04T08:48:31;6.25;;;3.72;;
44564;SDS011;30275;51.822;-0.326;2023-02-04T08:50:57;8.43;;;4.15;;
44564;SDS011;30275;51.822;-0.326;2023-02-04T08:53:22;6.57;;;4.63;;
44564;SDS011;30275;51.822;-0.326;2023-02-04T08:55:48;5.43;;;3.90;;
44564;SDS011;30275;51.822;-0.326;2023-02-04T08:58:14;6.80;;;4.65;;
44564;SDS011;30275;51.822;-0.326;2023-02-04T09:00:40;7.32;;;4.40;;
44564;SDS011;30275;51.822;-0.326;2023-02-04T09:03:05;7.63;;;4.35;;
44564;SDS011;30275;51.822;-0.326;2023-02-04T09:05:31;6.82;;;4.82;;
44564;SDS011;30275;51.822;-0.326;2023-02-04T09:07:57;6.07;;;4.25;;
44564;SDS011;30275;51.822;-0.326;2023-02-04T09:10:23;6.80;;;4.40;;
44564;SDS011;30275;51.822;-0.326;2023-02-04T09:12:48;6.32;;;4.07;;
44564;SDS011;30275;51.822;-0.326;2023-02-04T09:15:19;5.53;;;3.80;;
44564;SDS011;30275;51.822;-0.326;2023-02-04T09:17:46;6.65;;;4.25;;
44564;SDS011;30275;51.822;-0.326;2023-02-04T09:20:12;6.03;;;3.75;;
44564;SDS011;30275;51.822;-0.326;2023-02-04T09:22:37;7.30;;;4.00;;
44564;SDS011;30275;51.822;-0.326;2023-02-04T09:25:03;6.32;;;3.90;;
44564;SDS011;30275;51.822;-0.326;2023-02-04T09:27:29;5.45;;;3.58;;
44564;SDS011;30275;51.822;-0.326;2023-02-04T09:29:55;7.18;;;3.58;;
44564;SDS011;30275;51.822;-0.326;2023-02-04T09:32:20;8.25;;;4.40;;
44564;SDS011;30275;51.822;-0.326;2023-02-04T09:34:46;5.32;;;3.90;;
44564;SDS011;30275;51.822;-0.326;2023-02-04T09:37:11;4.97;;;3.38;;
44564;SDS011;30275;51.822;-0.326;2023-02-04T09:39:37;8.02;;;4.38;;
44564;SDS011;30275;51.822;-0.326;2023-02-04T09:42:03;5.25;;;3.70;;
44564;SDS011;30275;51.822;-0.326;2023-02-04T09:44:28;7.65;;;4.38;;
44564;SDS011;30275;51.822;-0.326;2023-02-04T09:46:55;5.15;;;3.65;;
44564;SDS011;30275;51.822;-0.326;2023-02-04T09:49:23;6.95;;;4.28;;
44564;SDS011;30275;51.822;-0.326;2023-02-04T09:51:50;6.93;;;3.92;;
44564;SDS011;30275;51.822;-0.326;2023-02-04T09:54:17;4.78;;;3.33;;
44564;SDS011;30275;51.822;-0.326;2023-02-04T09:56:44;6.75;;;4.07;;
44564;SDS011;30275;51.822;-0.326;2023-02-04T09:59:18;4.30;;;3.25;;
44564;SDS011;30275;51.822;-0.326;2023-02-04T10:01:47;7.85;;;3.90;;
44564;SDS011;30275;51.822;-0.326;2023-02-04T10:04:19;6.50;;;3.35;;
44564;SDS011;30275;51.822;-0.326;2023-02-04T10:06:46;4.88;;;3.28;;
44564;SDS011;30275;51.822;-0.326;2023-02-04T10:09:13;5.00;;;3.63;;
44564;SDS011;30275;51.822;-0.326;2023-02-04T10:11:41;7.30;;;3.30;;
44564;SDS011;30275;51.822;-0.326;2023-02-04T10:14:14;6.13;;;2.90;;
44564;SDS011;30275;51.822;-0.326;2023-02-04T10:19:12;5.45;;;3.63;;
44564;SDS011;30275;51.822;-0.326;2023-02-04T10:21:39;4.38;;;3.13;;
44564;SDS011;30275;51.822;-0.326;2023-02-04T10:24:21;5.70;;;3.42;;
44564;SDS011;30275;51.822;-0.326;2023-02-04T10:26:52;6.07;;;3.60;;
44564;SDS011;30275;51.822;-0.326;2023-02-04T10:29:19;4.00;;;2.22;;
44564;SDS011;30275;51.822;-0.326;2023-02-04T10:31:49;7.03;;;3.00;;
44564;SDS011;30275;51.822;-0.326;2023-02-04T10:36:48;4.30;;;2.65;;
44564;SDS011;30275;51.822;-0.326;2023-02-04T10:39:22;3.53;;;2.65;;
44564;SDS011;30275;51.822;-0.326;2023-02-04T10:41:54;6.00;;;2.95;;
44564;SDS011;30275;51.822;-0.326;2023-02-04T10:44:34;4.28;;;2.33;;
44564;SDS011;30275;51.822;-0.326;2023-02-04T10:49:31;3.30;;;2.00;;
44564;SDS011;30275;51.822;-0.326;2023-02-04T10:51:57;2.95;;;1.63;;
44564;SDS011;30275;51.822;-0.326;2023-02-04T10:54:25;4.60;;;2.42;;
44564;SDS011;30275;51.822;-0.326;2023-02-04T10:59:41;2.92;;;1.70;;
44564;SDS011;30275;51.822;-0.326;2023-02-04T11:04:54;2.92;;;1.85;;
44564;SDS011;30275;51.822;-0.326;2023-02-04T11:07:20;4.45;;;1.95;;
44564;SDS011;30275;51.822;-0.326;2023-02-04T11:09:46;3.67;;;1.65;;
44564;SDS011;30275;51.822;-0.326;2023-02-04T11:12:19;3.42;;;1.80;;
44564;SDS011;30275;51.822;-0.326;2023-02-04T11:14:55;4.55;;;1.77;;
44564;SDS011;30275;51.822;-0.326;2023-02-04T11:17:27;3.97;;;1.98;;
44564;SDS011;30275;51.822;-0.326;2023-02-04T11:19:57;3.47;;;1.80;;
44564;SDS011;30275;51.822;-0.326;2023-02-04T11:22:40;3.72;;;1.60;;
44564;SDS011;30275;51.822;-0.326;2023-02-04T11:27:59;2.55;;;1.63;;
44564;SDS011;30275;51.822;-0.326;2023-02-04T11:30:36;5.50;;;1.92;;
44564;SDS011;30275;51.822;-0.326;2023-02-04T11:33:03;3.72;;;1.80;;
44564;SDS011;30275;51.822;-0.326;2023-02-04T11:35:30;4.10;;;1.75;;
44564;SDS011;30275;51.822;-0.326;2023-02-04T11:37:56;4.45;;;1.75;;
44564;SDS011;30275;51.822;-0.326;2023-02-04T11:43:00;2.85;;;1.63;;
44564;SDS011;30275;51.822;-0.326;2023-02-04T11:45:27;3.00;;;1.58;;
44564;SDS011;30275;51.822;-0.326;2023-02-04T11:47:56;1.95;;;1.38;;
44564;SDS011;30275;51.822;-0.326;2023-02-04T11:50:24;3.60;;;1.60;;
44564;SDS011;30275;51.822;-0.326;2023-02-04T11:52:55;3.50;;;1.70;;
44564;SDS011;30275;51.822;-0.326;2023-02-04T11:55:22;3.38;;;1.52;;
44564;SDS011;30275;51.822;-0.326;2023-02-04T11:57:50;3.25;;;1.60;;
44564;SDS011;30275;51.822;-0.326;2023-02-04T12:00:19;3.88;;;1.42;;
44564;SDS011;30275;51.822;-0.326;2023-02-04T12:02:55;2.38;;;1.60;;
44564;SDS011;30275;51.822;-0.326;2023-02-04T12:05:34;3.20;;;1.63;;
44564;SDS011;30275;51.822;-0.326;2023-02-04T12:08:10;3.10;;;1.92;;
44564;SDS011;30275;51.822;-0.326;2023-02-04T12:10:37;3.90;;;1.75;;
44564;SDS011;30275;51.822;-0.326;2023-02-04T12:13:11;3.08;;;1.98;;
44564;SDS011;30275;51.822;-0.326;2023-02-04T12:15:40;4.32;;;2.10;;
44564;SDS011;30275;51.822;-0.326;2023-02-04T12:18:07;4.47;;;1.88;;
44564;SDS011;30275;51.822;-0.326;2023-02-04T12:20:36;1.98;;;1.65;;
44564;SDS011;30275;51.822;-0.326;2023-02-04T12:23:02;4.53;;;2.30;;
44564;SDS011;30275;51.822;-0.326;2023-02-04T12:25:28;3.05;;;1.70;;
44564;SDS011;30275;51.822;-0.326;2023-02-04T12:27:54;5.05;;;2.10;;
44564;SDS011;30275;51.822;-0.326;2023-02-04T12:30:20;5.35;;;2.03;;
44564;SDS011;30275;51.822;-0.326;2023-02-04T12:32:46;7.70;;;1.90;;
44564;SDS011;30275;51.822;-0.326;2023-02-04T12:35:12;2.35;;;1.70;;
44564;SDS011;30275;51.822;-0.326;2023-02-04T12:37:38;3.72;;;1.70;;
44564;SDS011;30275;51.822;-0.326;2023-02-04T12:40:04;3.40;;;1.85;;
44564;SDS011;30275;51.822;-0.326;2023-02-04T12:42:30;4.20;;;1.80;;
44564;SDS011;30275;51.822;-0.326;2023-02-04T12:44:55;4.10;;;1.30;;
44564;SDS011;30275;51.822;-0.326;2023-02-04T12:47:21;3.17;;;1.70;;
44564;SDS011;30275;51.822;-0.326;2023-02-04T12:49:47;3.00;;;1.50;;
44564;SDS011;30275;51.822;-0.326;2023-02-04T12:52:12;3.47;;;1.75;;
44564;SDS011;30275;51.822;-0.326;2023-02-04T12:54:38;3.35;;;1.77;;
44564;SDS011;30275;51.822;-0.326;2023-02-04T12:57:04;2.83;;;1.70;;
44564;SDS011;30275;51.822;-0.326;2023-02-04T12:59:29;7.00;;;1.88;;
44564;SDS011;30275;51.822;-0.326;2023-02-04T13:01:55;7.03;;;2.72;;
44564;SDS011;30275;51.822;-0.326;2023-02-04T13:04:21;3.35;;;1.70;;
44564;SDS011;30275;51.822;-0.326;2023-02-04T13:06:47;1.77;;;1.45;;
44564;SDS011;30275;51.822;-0.326;2023-02-04T13:09:13;4.68;;;2.30;;
44564;SDS011;30275;51.822;-0.326;2023-02-04T13:11:39;6.63;;;3.65;;
44564;SDS011;30275;51.822;-0.326;2023-02-04T13:14:04;4.25;;;1.90;;
44564;SDS011;30275;51.822;-0.326;2023-02-04T13:16:30;3.33;;;2.00;;
44564;SDS011;30275;51.822;-0.326;2023-02-04T13:18:55;4.15;;;1.92;;
44564;SDS011;30275;51.822;-0.326;2023-02-04T13:21:21;2.65;;;1.70;;
44564;SDS011;30275;51.822;-0.326;2023-02-04T13:23:47;3.03;;;1.88;;
44564;SDS011;30275;51.822;-0.326;2023-02-04T13:26:12;4.25;;;1.83;;
44564;SDS011;30275;51.822;-0.326;2023-02-04T13:28:38;2.70;;;2.00;;
44564;SDS011;30275;51.822;-0.326;2023-02-04T13:31:04;4.38;;;2.00;;
44564;SDS011;30275;51.822;-0.326;2023-02-04T13:33:29;5.93;;;2.20;;
44564;SDS011;30275;51.822;-0.326;2023-02-04T13:35:55;5.50;;;2.92;;
44564;SDS011;30275;51.822;-0.326;2023-02-04T13:38:21;6.55;;;2.65;;
44564;SDS011;30275;51.822;-0.326;2023-02-04T13:40:47;5.18;;;2.30;;
44564;SDS011;30275;51.822;-0.326;2023-02-04T13:43:13;4.55;;;2.30;;
44564;SDS011;30275;51.822;-0.326;2023-02-04T13:45:38;5.63;;;2.55;;
44564;SDS011;30275;51.822;-0.326;2023-02-04T13:48:04;7.10;;;2.65;;
44564;SDS011;30275;51.822;-0.326;2023-02-04T13:50:30;3.67;;;1.98;;
44564;SDS011;30275;51.822;-0.326;2023-02-04T13:52:56;3.30;;;1.73;;
44564;SDS011;30275;51.822;-0.326;2023-02-04T13:55:21;2.80;;;1.88;;
44564;SDS011;30275;51.822;-0.326;2023-02-04T13:57:47;4.22;;;1.67;;
44564;SDS011;30275;51.822;-0.326;2023-02-04T14:00:13;6.75;;;2.50;;
44564;SDS011;30275;51.822;-0.326;2023-02-04T14:02:38;5.53;;;2.80;;
44564;SDS011;30275;51.822;-0.326;2023-02-04T14:05:04;3.50;;;2.30;;
44564;SDS011;30275;51.822;-0.326;2023-02-04T14:07:30;3.75;;;1.80;;
44564;SDS011;30275;51.822;-0.326;2023-02-04T14:09:57;3.00;;;1.95;;
44564;SDS011;30275;51.822;-0.326;2023-02-04T14:12:23;7.05;;;2.08;;
44564;SDS011;30275;51.822;-0.326;2023-02-04T14:14:48;3.65;;;1.75;;
44564;SDS011;30275;51.822;-0.326;2023-02-04T14:17:14;6.35;;;2.28;;
44564;SDS011;30275;51.822;-0.326;2023-02-04T14:19:39;5.30;;;2.72;;
44564;SDS011;30275;51.822;-0.326;2023-02-04T14:22:05;5.05;;;2.47;;
44564;SDS011;30275;51.822;-0.326;2023-02-04T14:24:31;8.23;;;2.70;;
44564;SDS011;30275;51.822;-0.326;2023-02-04T14:26:57;5.47;;;2.45;;
44564;SDS011;30275;51.822;-0.326;2023-02-04T14:29:23;4.03;;;2.13;;
44564;SDS011;30275;51.822;-0.326;2023-02-04T14:31:48;2.92;;;1.90;;
44564;SDS011;30275;51.822;-0.326;2023-02-04T14:34:14;3.72;;;2.00;;
44564;SDS011;30275;51.822;-0.326;2023-02-04T14:36:39;4.50;;;2.03;;
44564;SDS011;30275;51.822;-0.326;2023-02-04T14:39:05;3.90;;;2.25;;
44564;SDS011;30275;51.822;-0.326;2023-02-04T14:41:31;4.85;;;2.25;;
44564;SDS011;30275;51.822;-0.326;2023-02-04T14:43:57;6.22;;;2.28;;
44564;SDS011;30275;51.822;-0.326;2023-02-04T14:46:22;3.88;;;2.47;;
44564;SDS011;30275;51.822;-0.326;2023-02-04T14:48:48;6.82;;;2.55;;
44564;SDS011;30275;51.822;-0.326;2023-02-04T14:51:16;6.07;;;2.15;;